createdAt,value
2022-07-30T00:01:41.961Z,9.10
2022-07-30T00:04:03.971Z,8.63
2022-07-30T00:06:25.871Z,8.97
2022-07-30T00:08:47.080Z,9.10
2022-07-30T00:11:09.179Z,8.97
2022-07-30T00:13:30.801Z,9.60
2022-07-30T00:15:53.588Z,10.53
2022-07-30T00:18:14.853Z,10.60
2022-07-30T00:20:37.020Z,10.03
2022-07-30T00:23:04.226Z,8.97
2022-07-30T00:25:26.018Z,9.70
2022-07-30T00:27:47.676Z,10.73
2022-07-30T00:30:10.028Z,9.70
2022-07-30T00:32:33.287Z,9.30
2022-07-30T00:34:54.665Z,10.03
2022-07-30T00:37:15.893Z,9.50
2022-07-30T00:39:37.038Z,9.77
2022-07-30T00:41:59.934Z,9.93
2022-07-30T00:44:21.122Z,9.37
2022-07-30T00:46:42.329Z,8.87
2022-07-30T00:49:04.957Z,8.90
2022-07-30T00:51:26.225Z,8.47
2022-07-30T00:53:47.645Z,8.13
2022-07-30T00:56:09.775Z,7.53
2022-07-30T00:58:31.315Z,7.20
2022-07-30T01:00:52.698Z,6.47
2022-07-30T01:03:13.853Z,6.70
2022-07-30T01:05:36.938Z,6.73
2022-07-30T01:07:58.145Z,6.03
2022-07-30T01:10:19.377Z,6.30
2022-07-30T01:12:40.961Z,6.20
2022-07-30T01:15:04.938Z,6.03
2022-07-30T01:17:26.582Z,6.60
2022-07-30T01:19:48.451Z,6.40
2022-07-30T01:22:20.598Z,6.47
2022-07-30T01:24:44.603Z,5.83
2022-07-30T01:27:07.565Z,6.50
2022-07-30T01:29:30.648Z,6.50
2022-07-30T01:31:55.550Z,6.43
2022-07-30T01:34:17.868Z,6.57
2022-07-30T01:36:39.238Z,6.30
2022-07-30T01:39:01.050Z,6.17
2022-07-30T01:41:23.008Z,6.63
2022-07-30T01:43:47.108Z,6.50
2022-07-30T01:46:10.179Z,7.13
2022-07-30T01:48:32.992Z,6.70
2022-07-30T01:50:56.486Z,6.40
2022-07-30T01:53:19.342Z,6.77
2022-07-30T01:55:42.165Z,6.87
2022-07-30T01:58:04.762Z,6.70
2022-07-30T02:00:27.955Z,6.50
2022-07-30T02:02:49.514Z,6.53
2022-07-30T02:05:10.801Z,6.60
2022-07-30T02:07:36.538Z,6.60
2022-07-30T02:10:02.826Z,6.50
2022-07-30T02:12:31.024Z,6.57
2022-07-30T02:14:55.862Z,7.03
2022-07-30T02:17:34.754Z,6.97
2022-07-30T02:20:03.065Z,6.80
2022-07-30T02:22:34.231Z,6.53
2022-07-30T02:24:56.900Z,6.87
2022-07-30T02:27:21.473Z,6.97
2022-07-30T02:29:44.368Z,7.17
2022-07-30T02:32:09.174Z,7.50
2022-07-30T02:34:34.311Z,7.20
2022-07-30T02:36:56.269Z,7.50
2022-07-30T02:39:18.015Z,7.30
2022-07-30T02:41:39.978Z,7.17
2022-07-30T02:44:01.936Z,7.90
2022-07-30T02:46:24.434Z,7.30
2022-07-30T02:48:50.491Z,7.47
2022-07-30T02:51:13.856Z,6.70
2022-07-30T02:53:35.956Z,6.93
2022-07-30T02:55:58.287Z,7.00
2022-07-30T02:58:22.567Z,7.07
2022-07-30T03:00:44.463Z,6.97
2022-07-30T03:03:07.173Z,7.00
2022-07-30T03:05:29.001Z,6.60
2022-07-30T03:07:52.594Z,6.70
2022-07-30T03:10:14.669Z,7.40
2022-07-30T03:12:37.278Z,6.83
2022-07-30T03:14:59.453Z,7.30
2022-07-30T03:17:22.399Z,7.23
2022-07-30T03:19:46.469Z,7.17
2022-07-30T03:22:09.601Z,7.03
2022-07-30T03:24:32.596Z,6.90
2022-07-30T03:26:55.481Z,7.40
2022-07-30T03:29:17.743Z,7.07
2022-07-30T03:31:44.023Z,7.40
2022-07-30T03:34:07.022Z,7.40
2022-07-30T03:36:29.985Z,7.27
2022-07-30T03:38:51.437Z,7.67
2022-07-30T03:41:14.450Z,7.10
2022-07-30T03:43:36.421Z,8.00
2022-07-30T03:45:59.138Z,7.50
2022-07-30T03:48:21.196Z,8.07
2022-07-30T03:50:43.511Z,7.83
2022-07-30T03:53:05.809Z,7.93
2022-07-30T03:55:27.619Z,7.40
2022-07-30T03:57:50.472Z,7.70
2022-07-30T04:00:15.514Z,8.23
2022-07-30T04:02:42.595Z,8.00
2022-07-30T04:05:03.852Z,7.47
2022-07-30T04:07:25.542Z,8.00
2022-07-30T04:09:46.812Z,7.77
2022-07-30T04:12:08.176Z,7.93
2022-07-30T04:14:40.870Z,7.63
2022-07-30T04:17:05.359Z,7.80
2022-07-30T04:19:30.019Z,7.87
2022-07-30T04:21:52.434Z,7.90
2022-07-30T04:24:14.245Z,8.03
2022-07-30T04:26:37.750Z,8.17
2022-07-30T04:29:00.189Z,7.60
2022-07-30T04:31:23.898Z,7.80
2022-07-30T04:33:46.977Z,7.53
2022-07-30T04:36:09.013Z,7.87
2022-07-30T04:38:30.661Z,7.83
2022-07-30T04:40:51.812Z,7.73
2022-07-30T04:43:13.169Z,7.63
2022-07-30T04:45:35.295Z,7.40
2022-07-30T04:47:58.332Z,7.97
2022-07-30T04:50:22.780Z,7.77
2022-07-30T04:52:44.769Z,7.77
2022-07-30T04:55:08.162Z,8.33
2022-07-30T04:57:30.005Z,7.30
2022-07-30T04:59:51.539Z,7.60
2022-07-30T05:02:13.426Z,7.80
2022-07-30T05:04:36.718Z,7.90
2022-07-30T05:06:59.234Z,8.23
2022-07-30T05:09:20.745Z,8.23
2022-07-30T05:11:42.468Z,7.83
2022-07-30T05:14:03.597Z,8.20
2022-07-30T05:16:24.949Z,8.60
2022-07-30T05:18:46.785Z,8.07
2022-07-30T05:21:10.037Z,8.30
2022-07-30T05:23:31.421Z,8.10
2022-07-30T05:25:52.966Z,8.33
2022-07-30T05:28:14.642Z,8.30
2022-07-30T05:30:36.046Z,7.70
2022-07-30T05:32:57.724Z,7.63
2022-07-30T05:35:22.566Z,7.70
2022-07-30T05:37:45.392Z,7.27
2022-07-30T05:40:07.937Z,7.43
2022-07-30T05:42:29.206Z,7.87
2022-07-30T05:44:50.413Z,7.37
2022-07-30T05:47:11.627Z,7.53
2022-07-30T05:49:33.066Z,7.30
2022-07-30T05:51:54.468Z,7.40
2022-07-30T05:54:18.269Z,7.73
2022-07-30T05:56:40.890Z,7.47
2022-07-30T05:59:02.153Z,7.27
2022-07-30T06:01:23.709Z,7.33
2022-07-30T06:03:45.386Z,7.43
2022-07-30T06:06:08.131Z,6.80
2022-07-30T06:08:29.386Z,7.80
2022-07-30T06:10:51.921Z,7.00
2022-07-30T06:13:13.128Z,7.37
2022-07-30T06:15:34.366Z,7.37
2022-07-30T06:18:01.941Z,7.50
2022-07-30T06:20:24.280Z,7.30
2022-07-30T06:22:45.741Z,7.40
2022-07-30T06:25:08.352Z,6.63
2022-07-30T06:27:36.655Z,7.17
2022-07-30T06:30:01.562Z,7.77
2022-07-30T06:32:23.153Z,7.80
2022-07-30T06:34:45.046Z,7.50
2022-07-30T06:37:06.441Z,7.80
2022-07-30T06:39:55.863Z,7.80
2022-07-30T06:42:09.793Z,6.93
2022-07-30T06:44:32.422Z,7.10
2022-07-30T06:46:54.312Z,7.40
2022-07-30T06:49:16.430Z,7.20
2022-07-30T06:51:38.122Z,7.00
2022-07-30T06:54:00.124Z,7.20
2022-07-30T06:56:21.836Z,7.00
2022-07-30T06:58:43.146Z,6.70
2022-07-30T07:01:05.989Z,7.03
2022-07-30T07:03:40.014Z,7.17
2022-07-30T07:06:01.900Z,6.77
2022-07-30T07:08:25.297Z,7.17
2022-07-30T07:10:46.828Z,7.13
2022-07-30T07:13:08.325Z,6.60
2022-07-30T07:15:36.986Z,7.17
2022-07-30T07:18:00.691Z,7.53
2022-07-30T07:20:23.909Z,7.10
2022-07-30T07:22:45.721Z,7.10
2022-07-30T07:25:07.950Z,6.87
2022-07-30T07:27:29.775Z,6.97
2022-07-30T07:30:04.846Z,6.17
2022-07-30T07:32:27.775Z,7.23
2022-07-30T07:34:50.914Z,7.20
2022-07-30T07:37:12.438Z,7.27
2022-07-30T07:39:34.047Z,7.10
2022-07-30T07:41:56.325Z,7.60
2022-07-30T07:44:17.834Z,7.37
2022-07-30T07:46:39.435Z,7.30
2022-07-30T07:49:01.536Z,7.17
2022-07-30T07:51:34.757Z,6.70
2022-07-30T07:54:20.878Z,7.60
2022-07-30T07:56:42.723Z,6.80
2022-07-30T07:59:04.608Z,7.33
2022-07-30T08:01:29.614Z,7.37
2022-07-30T08:03:51.378Z,8.73
2022-07-30T08:06:15.111Z,7.80
2022-07-30T08:08:38.375Z,7.27
2022-07-30T08:10:59.982Z,7.30
2022-07-30T08:13:49.217Z,7.20
2022-07-30T08:16:03.115Z,7.50
2022-07-30T08:18:26.197Z,7.87
2022-07-30T08:20:47.776Z,7.80
2022-07-30T08:23:09.602Z,6.90
2022-07-30T08:25:32.548Z,7.00
2022-07-30T08:27:54.142Z,7.00
2022-07-30T08:30:17.404Z,6.23
2022-07-30T08:32:39.042Z,7.10
2022-07-30T08:35:00.890Z,6.67
2022-07-30T08:37:22.510Z,6.27
2022-07-30T08:39:44.213Z,6.17
2022-07-30T08:42:07.471Z,5.50
2022-07-30T08:44:30.138Z,5.53
2022-07-30T08:46:53.267Z,4.73
2022-07-30T08:49:15.426Z,5.30
2022-07-30T08:51:37.369Z,4.60
2022-07-30T08:53:59.386Z,4.10
2022-07-30T08:56:21.318Z,4.60
2022-07-30T08:58:44.439Z,4.50
2022-07-30T09:01:07.448Z,4.40
2022-07-30T09:03:30.369Z,4.77
2022-07-30T09:05:51.965Z,4.70
2022-07-30T09:08:13.599Z,4.47
2022-07-30T09:10:42.359Z,4.03
2022-07-30T09:13:25.509Z,4.60
2022-07-30T09:15:48.235Z,4.13
2022-07-30T09:18:10.103Z,4.30
2022-07-30T09:20:34.266Z,4.30
2022-07-30T09:22:57.077Z,4.00
2022-07-30T09:25:34.576Z,4.27
2022-07-30T09:27:56.695Z,4.20
2022-07-30T09:30:18.313Z,4.20
2022-07-30T09:32:50.786Z,4.43
2022-07-30T09:35:14.104Z,3.57
2022-07-30T09:37:35.506Z,3.50
2022-07-30T09:39:59.739Z,4.13
2022-07-30T09:42:22.549Z,3.87
2022-07-30T09:44:44.366Z,4.00
2022-07-30T09:47:06.309Z,3.20
2022-07-30T09:49:30.320Z,3.90
2022-07-30T09:51:55.774Z,3.67
2022-07-30T09:54:18.172Z,3.83
2022-07-30T09:59:34.848Z,3.63
2022-07-30T10:02:00.990Z,3.53
2022-07-30T10:04:27.101Z,3.80
2022-07-30T10:06:51.826Z,3.77
2022-07-30T10:09:27.258Z,3.43
2022-07-30T10:11:48.657Z,3.20
2022-07-30T10:14:10.569Z,3.40
2022-07-30T10:16:32.161Z,3.90
2022-07-30T10:18:56.431Z,3.57
2022-07-30T10:21:18.414Z,3.17
2022-07-30T10:23:44.452Z,3.17
2022-07-30T10:26:08.028Z,3.20
2022-07-30T10:28:34.656Z,3.50
2022-07-30T10:31:08.396Z,3.30
2022-07-30T10:33:42.950Z,3.77
2022-07-30T10:36:12.137Z,3.37
2022-07-30T10:38:39.474Z,3.17
2022-07-30T10:41:08.725Z,3.33
2022-07-30T10:43:56.542Z,3.20
2022-07-30T10:46:28.307Z,3.50
2022-07-30T10:48:50.065Z,3.53
2022-07-30T10:51:12.229Z,3.57
2022-07-30T10:53:48.442Z,3.10
2022-07-30T10:56:18.773Z,3.40
2022-07-30T10:59:05.669Z,3.10
2022-07-30T11:02:02.917Z,3.10
2022-07-30T11:04:29.404Z,2.83
2022-07-30T11:06:52.391Z,3.07
2022-07-30T11:09:41.060Z,3.23
2022-07-30T11:12:06.771Z,2.83
2022-07-30T11:14:57.214Z,2.80
2022-07-30T11:17:20.569Z,2.90
2022-07-30T11:20:12.529Z,2.87
2022-07-30T11:22:38.896Z,2.90
2022-07-30T11:25:02.775Z,2.70
2022-07-30T11:27:45.835Z,2.83
2022-07-30T11:30:36.084Z,2.80
2022-07-30T11:32:58.666Z,3.00
2022-07-30T11:35:22.975Z,2.87
2022-07-30T11:38:02.393Z,2.83
2022-07-30T11:40:26.355Z,2.93
2022-07-30T11:42:49.240Z,2.60
2022-07-30T11:45:32.977Z,2.67
2022-07-30T11:47:56.493Z,2.70
2022-07-30T11:50:19.468Z,2.73
2022-07-30T11:52:41.536Z,2.57
2022-07-30T11:55:06.325Z,3.87
2022-07-30T11:57:41.142Z,2.70
2022-07-30T12:00:04.392Z,2.73
2022-07-30T12:02:28.101Z,2.70
2022-07-30T12:04:49.539Z,2.50
2022-07-30T12:07:11.321Z,2.47
2022-07-30T12:09:32.926Z,2.60
2022-07-30T12:11:55.880Z,2.70
2022-07-30T12:14:17.220Z,2.73
2022-07-30T12:16:41.082Z,2.60
2022-07-30T12:19:03.941Z,2.80
2022-07-30T12:21:26.246Z,3.10
2022-07-30T12:23:56.461Z,2.70
2022-07-30T12:26:22.332Z,2.40
2022-07-30T12:28:43.689Z,2.97
2022-07-30T12:31:06.369Z,2.60
2022-07-30T12:33:29.389Z,2.70
2022-07-30T12:35:52.202Z,2.70
2022-07-30T12:38:14.316Z,2.57
2022-07-30T12:40:35.793Z,2.60
2022-07-30T12:42:57.181Z,2.40
2022-07-30T12:45:29.677Z,2.43
2022-07-30T12:48:12.119Z,2.70
2022-07-30T12:50:35.349Z,2.40
2022-07-30T12:52:58.501Z,2.50
2022-07-30T12:55:21.285Z,2.73
2022-07-30T12:57:58.173Z,3.43
2022-07-30T13:00:20.322Z,2.50
2022-07-30T13:02:41.993Z,2.20
2022-07-30T13:05:10.554Z,2.30
2022-07-30T13:07:36.225Z,2.30
2022-07-30T13:10:08.750Z,2.50
2022-07-30T13:12:30.613Z,2.70
2022-07-30T13:14:52.126Z,2.37
2022-07-30T13:17:13.518Z,2.50
2022-07-30T13:19:35.408Z,2.70
2022-07-30T13:21:56.911Z,2.50
2022-07-30T13:24:20.344Z,2.80
2022-07-30T13:26:41.917Z,2.30
2022-07-30T13:29:03.442Z,2.30
2022-07-30T13:31:25.516Z,2.13
2022-07-30T13:33:47.183Z,2.30
2022-07-30T13:36:09.202Z,2.27
2022-07-30T13:38:30.773Z,2.40
2022-07-30T13:40:55.383Z,2.10
2022-07-30T13:43:20.184Z,2.53
2022-07-30T13:45:41.707Z,2.10
2022-07-30T13:48:03.930Z,2.00
2022-07-30T13:50:25.160Z,2.00
2022-07-30T13:52:46.638Z,2.10
2022-07-30T13:55:08.323Z,2.13
2022-07-30T13:57:31.113Z,1.90
2022-07-30T13:59:52.617Z,2.50
2022-07-30T14:02:13.812Z,2.00
2022-07-30T14:04:35.043Z,2.27
2022-07-30T14:06:56.404Z,2.30
2022-07-30T14:09:17.994Z,2.50
2022-07-30T14:11:39.409Z,2.20
2022-07-30T14:14:02.077Z,2.00
2022-07-30T14:16:44.215Z,2.33
2022-07-30T14:19:04.925Z,2.10
2022-07-30T14:21:26.353Z,2.10
2022-07-30T14:23:47.966Z,2.30
2022-07-30T14:26:09.366Z,2.33
2022-07-30T14:28:31.046Z,2.43
2022-07-30T14:30:54.002Z,2.33
2022-07-30T14:33:15.733Z,2.30
2022-07-30T14:35:37.409Z,2.33
2022-07-30T14:37:58.750Z,2.50
2022-07-30T14:40:20.154Z,2.10
2022-07-30T14:42:41.678Z,2.30
2022-07-30T14:45:03.900Z,2.50
2022-07-30T14:47:27.198Z,2.37
2022-07-30T14:49:49.197Z,2.00
2022-07-30T14:52:10.950Z,2.20
2022-07-30T14:54:32.277Z,2.10
2022-07-30T14:56:58.030Z,2.20
2022-07-30T14:59:20.104Z,2.30
2022-07-30T15:01:42.275Z,2.10
2022-07-30T15:04:09.510Z,2.00
2022-07-30T15:06:31.246Z,2.40
2022-07-30T15:08:53.052Z,2.10
2022-07-30T15:11:14.664Z,2.20
2022-07-30T15:13:38.548Z,2.30
2022-07-30T15:16:03.071Z,2.33
2022-07-30T15:18:24.548Z,2.20
2022-07-30T15:20:47.432Z,2.30
2022-07-30T15:23:13.270Z,2.30
2022-07-30T15:25:35.077Z,2.20
2022-07-30T15:27:57.837Z,2.30
2022-07-30T15:30:20.181Z,2.00
2022-07-30T15:32:41.578Z,2.27
2022-07-30T15:35:02.920Z,2.00
2022-07-30T15:37:25.753Z,2.40
2022-07-30T15:39:47.309Z,1.97
2022-07-30T15:42:08.712Z,2.50
2022-07-30T15:44:30.682Z,2.20
2022-07-30T15:46:52.256Z,1.97
2022-07-30T15:49:13.843Z,2.40
2022-07-30T15:51:35.807Z,2.20
2022-07-30T15:53:58.656Z,2.10
2022-07-30T15:56:20.734Z,2.03
2022-07-30T15:58:43.630Z,1.80
2022-07-30T16:01:06.110Z,2.30
2022-07-30T16:03:27.456Z,2.53
2022-07-30T16:05:51.510Z,2.00
2022-07-30T16:08:14.399Z,3.93
2022-07-30T16:10:40.532Z,4.23
2022-07-30T16:13:03.599Z,1.80
2022-07-30T16:15:25.666Z,1.60
2022-07-30T16:17:47.171Z,1.80
2022-07-30T16:20:10.396Z,2.80
2022-07-30T16:22:31.862Z,11.97
2022-07-30T16:24:53.537Z,2.47
2022-07-30T16:27:16.602Z,28.63
2022-07-30T16:29:37.749Z,134.30
2022-07-30T16:31:59.514Z,262.17
2022-07-30T16:34:26.396Z,97.80
2022-07-30T16:36:48.259Z,2.20
2022-07-30T16:39:10.272Z,2.10
2022-07-30T16:41:31.957Z,2.03
2022-07-30T16:43:55.004Z,1.80
2022-07-30T16:46:16.483Z,2.07
2022-07-30T16:48:41.374Z,2.00
2022-07-30T16:51:03.046Z,2.00
2022-07-30T16:53:24.724Z,2.20
2022-07-30T16:55:48.246Z,2.23
2022-07-30T16:58:10.222Z,2.23
2022-07-30T17:00:33.158Z,2.30
2022-07-30T17:02:54.758Z,2.10
2022-07-30T17:05:17.938Z,2.27
2022-07-30T17:07:39.438Z,2.20
2022-07-30T17:10:01.005Z,2.30
2022-07-30T17:12:25.334Z,2.03
2022-07-30T17:14:47.390Z,2.20
2022-07-30T17:17:14.167Z,2.30
2022-07-30T17:19:36.385Z,2.17
2022-07-30T17:21:57.839Z,2.30
2022-07-30T17:24:21.294Z,2.27
2022-07-30T17:26:43.924Z,2.00
2022-07-30T17:29:05.345Z,2.10
2022-07-30T17:31:26.637Z,2.13
2022-07-30T17:33:49.342Z,2.50
2022-07-30T17:36:12.782Z,2.30
2022-07-30T17:38:34.106Z,2.30
2022-07-30T17:40:55.659Z,2.50
2022-07-30T17:43:16.909Z,2.20
2022-07-30T17:45:38.345Z,2.37
2022-07-30T17:48:01.451Z,2.17
2022-07-30T17:50:24.794Z,2.20
2022-07-30T17:52:46.592Z,2.60
2022-07-30T17:55:11.098Z,2.50
2022-07-30T17:57:32.744Z,2.10
2022-07-30T17:59:54.027Z,2.50
2022-07-30T18:02:15.678Z,2.17
2022-07-30T18:04:37.241Z,2.20
2022-07-30T18:07:00.405Z,2.13
2022-07-30T18:09:21.843Z,2.70
2022-07-30T18:11:43.759Z,2.60
2022-07-30T18:14:05.563Z,2.60
2022-07-30T18:16:27.108Z,2.53
2022-07-30T18:18:48.694Z,2.43
2022-07-30T18:21:10.489Z,2.37
2022-07-30T18:23:34.741Z,2.70
2022-07-30T18:25:56.832Z,2.77
2022-07-30T18:28:18.882Z,2.30
2022-07-30T18:30:41.167Z,2.60
2022-07-30T18:33:02.416Z,2.40
2022-07-30T18:35:23.908Z,2.53
2022-07-30T18:37:45.520Z,2.50
2022-07-30T18:40:09.678Z,2.40
2022-07-30T18:42:31.441Z,2.77
2022-07-30T18:44:53.058Z,2.73
2022-07-30T18:47:14.570Z,2.77
2022-07-30T18:49:37.830Z,2.40
2022-07-30T18:52:01.236Z,2.70
2022-07-30T18:54:24.594Z,2.77
2022-07-30T18:56:47.554Z,3.30
2022-07-30T18:59:09.408Z,2.70
2022-07-30T19:01:31.154Z,2.73
2022-07-30T19:03:52.483Z,3.00
2022-07-30T19:06:14.861Z,3.00
2022-07-30T19:08:36.928Z,3.20
2022-07-30T19:10:58.169Z,3.03
2022-07-30T19:13:23.520Z,3.37
2022-07-30T19:15:45.290Z,3.20
2022-07-30T19:18:06.921Z,2.83
2022-07-30T19:20:28.757Z,3.00
2022-07-30T19:22:50.705Z,3.17
2022-07-30T19:25:12.214Z,3.13
2022-07-30T19:27:33.682Z,2.93
2022-07-30T19:29:56.581Z,2.93
2022-07-30T19:32:18.151Z,3.10
2022-07-30T19:34:40.597Z,2.97
2022-07-30T19:37:01.837Z,3.13
2022-07-30T19:39:23.074Z,3.27
2022-07-30T19:41:48.246Z,3.10
2022-07-30T19:44:13.179Z,3.00
2022-07-30T19:46:41.624Z,3.20
2022-07-30T19:49:02.811Z,3.10
2022-07-30T19:52:09.837Z,2.83
2022-07-30T19:54:11.516Z,2.93
2022-07-30T19:56:37.767Z,2.97
2022-07-30T19:59:14.823Z,3.00
2022-07-30T20:01:40.231Z,3.20
2022-07-30T20:04:04.825Z,3.20
2022-07-30T20:06:28.410Z,3.00
2022-07-30T20:08:51.496Z,3.20
2022-07-30T20:11:21.045Z,3.00
2022-07-30T20:13:56.033Z,2.93
2022-07-30T20:16:18.263Z,2.90
2022-07-30T20:18:42.096Z,3.10
2022-07-30T20:21:05.354Z,3.17
2022-07-30T20:23:27.026Z,3.30
2022-07-30T20:25:49.226Z,3.30
2022-07-30T20:28:11.189Z,3.60
2022-07-30T20:30:33.343Z,3.30
2022-07-30T20:32:55.930Z,3.77
2022-07-30T20:35:20.051Z,4.53
2022-07-30T20:37:55.411Z,4.17
2022-07-30T20:40:18.397Z,3.50
2022-07-30T20:42:42.653Z,3.70
2022-07-30T20:45:04.596Z,3.90
2022-07-30T20:47:38.026Z,3.90
2022-07-30T20:50:10.207Z,4.20
2022-07-30T20:52:31.942Z,3.90
2022-07-30T20:54:54.960Z,3.70
2022-07-30T20:57:20.233Z,3.70
2022-07-30T20:59:57.757Z,4.03
2022-07-30T21:02:28.171Z,3.73
2022-07-30T21:04:50.064Z,3.87
2022-07-30T21:07:11.481Z,3.90
2022-07-30T21:09:49.684Z,3.90
2022-07-30T21:12:15.431Z,3.87
2022-07-30T21:14:37.466Z,4.07
2022-07-30T21:16:58.643Z,4.00
2022-07-30T21:19:19.958Z,3.87
2022-07-30T21:21:48.240Z,3.93
2022-07-30T21:24:12.291Z,3.93
2022-07-30T21:26:34.069Z,4.20
2022-07-30T21:28:57.447Z,3.80
2022-07-30T21:31:19.297Z,4.10
2022-07-30T21:34:01.106Z,3.80
2022-07-30T21:36:24.868Z,4.00
2022-07-30T21:38:46.819Z,3.93
2022-07-30T21:41:11.106Z,3.70
2022-07-30T21:43:35.680Z,4.13
2022-07-30T21:45:58.568Z,3.90
2022-07-30T21:48:20.496Z,4.10
2022-07-30T21:50:44.987Z,3.90
2022-07-30T21:53:06.802Z,3.87
2022-07-30T21:55:34.047Z,4.10
2022-07-30T21:58:10.197Z,4.03
2022-07-30T22:01:04.131Z,3.87
2022-07-30T22:04:03.823Z,3.73
2022-07-30T22:06:21.816Z,4.43
2022-07-30T22:08:49.241Z,4.10
2022-07-30T22:11:11.181Z,4.40
2022-07-30T22:13:32.711Z,4.27
2022-07-30T22:15:55.032Z,3.90
2022-07-30T22:18:17.735Z,3.90
2022-07-30T22:20:42.574Z,4.10
2022-07-30T22:23:04.862Z,4.60
2022-07-30T22:28:08.508Z,4.50
2022-07-30T22:30:30.702Z,4.40
2022-07-30T22:32:52.095Z,4.57
2022-07-30T22:35:16.485Z,4.70
2022-07-30T22:37:38.439Z,4.70
2022-07-30T22:40:00.189Z,4.80
2022-07-30T22:42:24.962Z,4.63
2022-07-30T22:44:48.759Z,4.90
2022-07-30T22:47:21.782Z,4.40
2022-07-30T22:49:56.750Z,4.53
2022-07-30T22:52:25.342Z,4.60
2022-07-30T22:54:50.778Z,4.27
2022-07-30T22:57:12.593Z,5.00
2022-07-30T22:59:58.327Z,4.47
2022-07-30T23:02:15.437Z,4.90
2022-07-30T23:04:39.405Z,4.50
2022-07-30T23:07:02.162Z,4.80
2022-07-30T23:09:28.523Z,4.60
2022-07-30T23:12:07.544Z,4.40
2022-07-30T23:12:32.655Z,4.27
2022-07-30T23:14:29.194Z,5.40
2022-07-30T23:16:50.595Z,5.13
2022-07-30T23:19:16.847Z,4.93
2022-07-30T23:21:48.848Z,5.47
2022-07-30T23:24:10.715Z,4.90
2022-07-30T23:26:34.189Z,5.50
2022-07-30T23:28:56.004Z,5.57
2022-07-30T23:31:17.639Z,5.87
2022-07-30T23:33:39.128Z,5.37
2022-07-30T23:36:01.149Z,5.27
2022-07-30T23:38:22.784Z,5.10
2022-07-30T23:40:44.163Z,5.30
2022-07-30T23:43:06.856Z,5.60
2022-07-30T23:45:28.509Z,5.53
2022-07-30T23:48:01.284Z,5.73
2022-07-30T23:50:24.780Z,5.57
2022-07-30T23:52:46.306Z,5.33
2022-07-30T23:55:08.664Z,5.77
2022-07-30T23:57:30.093Z,6.13
2022-07-30T23:59:52.948Z,5.07
